createdAt,value
2024-04-24T00:00:18.580Z,-0.9
2024-04-24T00:03:19.204Z,-0.9
2024-04-24T00:06:19.923Z,-0.9
2024-04-24T00:08:20.536Z,-0.9
2024-04-24T00:11:21.353Z,-0.9
2024-04-24T00:13:22.250Z,-1.0
2024-04-24T00:16:22.801Z,-1.0
2024-04-24T00:18:23.418Z,-1.0
2024-04-24T00:21:24.210Z,-1.0
2024-04-24T00:23:24.784Z,-1.0
2024-04-24T00:26:25.562Z,-1.0
2024-04-24T00:28:26.358Z,-1.0
2024-04-24T00:31:26.922Z,-1.0
2024-04-24T00:33:27.603Z,-1.0
2024-04-24T00:36:28.480Z,-1.0
2024-04-24T00:41:29.045Z,-0.9
2024-04-24T00:43:29.671Z,-0.9
2024-04-24T00:46:30.223Z,-0.9
2024-04-24T00:48:30.857Z,-0.9
2024-04-24T00:51:31.569Z,-0.9
2024-04-24T00:54:32.126Z,-0.9
2024-04-24T00:56:32.670Z,-0.9
2024-04-24T00:59:33.234Z,-0.9
2024-04-24T01:01:33.787Z,-0.9
2024-04-24T01:04:34.356Z,-0.9
2024-04-24T01:06:35.023Z,-1.0
2024-04-24T01:09:35.578Z,-1.0
2024-04-24T01:11:36.167Z,-1.0
2024-04-24T01:14:37.002Z,-1.0
2024-04-24T01:16:37.589Z,-1.0
2024-04-24T01:21:38.219Z,-1.0
2024-04-24T01:24:38.785Z,-1.1
2024-04-24T01:26:39.326Z,-1.1
2024-04-24T01:29:39.888Z,-1.1
2024-04-24T01:32:40.588Z,-1.1
2024-04-24T01:34:41.499Z,-1.1
2024-04-24T01:37:42.074Z,-1.1
2024-04-24T01:39:42.597Z,-1.1
2024-04-24T01:42:43.152Z,-1.1
2024-04-24T01:44:43.761Z,-1.2
2024-04-24T01:47:44.467Z,-1.3
2024-04-24T01:49:45.468Z,-1.3
2024-04-24T01:52:46.110Z,-1.3
2024-04-24T01:54:46.707Z,-1.3
2024-04-24T01:57:47.287Z,-1.3
2024-04-24T02:02:47.885Z,-1.3
2024-04-24T02:05:48.546Z,-1.3
2024-04-24T02:07:49.091Z,-1.4
2024-04-24T02:10:49.728Z,-1.4
2024-04-24T02:12:50.381Z,-1.4
2024-04-24T02:15:51.043Z,-1.3
2024-04-24T02:17:51.593Z,-1.3
2024-04-24T02:20:52.487Z,-1.3
2024-04-24T02:22:53.107Z,-1.3
2024-04-24T02:25:53.858Z,-1.3
2024-04-24T02:27:54.508Z,-1.3
2024-04-24T02:30:55.066Z,-1.3
2024-04-24T02:32:55.726Z,-1.3
2024-04-24T02:35:56.757Z,-1.3
2024-04-24T02:37:57.348Z,-1.4
2024-04-24T02:42:58.002Z,-1.5
2024-04-24T02:45:58.587Z,-1.5
2024-04-24T02:47:59.245Z,-1.6
2024-04-24T02:51:00.109Z,-1.5
2024-04-24T02:54:00.682Z,-1.6
2024-04-24T02:56:01.241Z,-1.7
2024-04-24T02:59:01.997Z,-1.7
2024-04-24T03:01:02.745Z,-1.7
2024-04-24T03:04:03.506Z,-1.8
2024-04-24T03:06:04.230Z,-1.9
2024-04-24T03:09:04.791Z,-2.0
2024-04-24T03:11:05.337Z,-2.1
2024-04-24T03:14:06.209Z,-2.2
2024-04-24T03:16:07.026Z,-2.3
2024-04-24T03:19:07.603Z,-2.5
2024-04-24T03:24:08.163Z,-2.5
2024-04-24T03:27:08.758Z,-2.6
2024-04-24T03:29:09.335Z,-2.6
2024-04-24T03:32:10.192Z,-2.7
2024-04-24T03:34:11.134Z,-2.8
2024-04-24T03:37:11.721Z,-2.9
2024-04-24T03:39:12.319Z,-3.0
2024-04-24T03:42:12.914Z,-3.1
2024-04-24T03:44:13.543Z,-2.9
2024-04-24T03:47:14.368Z,-3.1
2024-04-24T03:49:15.283Z,-3.1
2024-04-24T03:52:15.820Z,-3.1
2024-04-24T03:54:16.377Z,-3.1
2024-04-24T03:57:16.925Z,-3.2
2024-04-24T03:59:17.470Z,-3.2
2024-04-24T04:04:18.279Z,-3.3
2024-04-24T04:07:19.337Z,-3.5
2024-04-24T04:09:19.870Z,-3.5
2024-04-24T04:12:20.470Z,-3.5
2024-04-24T04:15:21.298Z,-3.6
2024-04-24T04:17:21.930Z,-3.7
2024-04-24T04:20:22.866Z,-3.7
2024-04-24T04:22:23.736Z,-3.7
2024-04-24T04:25:24.307Z,-3.8
2024-04-24T04:27:24.909Z,-3.8
2024-04-24T04:30:25.467Z,-3.7
2024-04-24T04:32:26.236Z,-3.6
2024-04-24T04:35:27.217Z,-3.7
2024-04-24T04:37:27.944Z,-3.7
2024-04-24T04:40:28.493Z,-3.6
2024-04-24T04:45:29.035Z,-3.3
2024-04-24T04:47:29.694Z,-3.3
2024-04-24T04:50:30.696Z,-3.1
2024-04-24T04:52:31.392Z,-2.7
2024-04-24T04:55:31.990Z,-2.3
2024-04-24T04:58:32.719Z,-1.8
2024-04-24T05:00:33.271Z,-1.8
2024-04-24T05:03:33.902Z,-1.7
2024-04-24T05:05:34.497Z,-1.5
2024-04-24T05:08:35.328Z,-1.7
2024-04-24T05:10:35.874Z,-1.5
2024-04-24T05:13:36.433Z,-1.1
2024-04-24T05:15:36.986Z,-0.9
2024-04-24T05:18:37.826Z,-0.9
2024-04-24T05:20:38.866Z,-1.1
2024-04-24T05:25:39.469Z,-0.6
2024-04-24T05:28:40.009Z,-0.7
2024-04-24T05:31:40.696Z,-1.0
2024-04-24T05:33:41.372Z,-1.0
2024-04-24T05:38:42.426Z,-1.0
2024-04-24T05:41:42.997Z,-1.2
2024-04-24T05:43:43.610Z,-0.9
2024-04-24T05:46:44.202Z,-0.9
2024-04-24T05:48:44.890Z,-0.7
2024-04-24T05:51:45.878Z,-0.5
2024-04-24T05:53:46.451Z,-0.3
2024-04-24T05:56:47.030Z,-0.3
2024-04-24T05:58:47.608Z,-0.2
2024-04-24T06:01:48.276Z,0.0
2024-04-24T06:06:50.027Z,0.1
2024-04-24T06:08:56.668Z,0.1
2024-04-24T06:11:57.273Z,0.2
2024-04-24T06:13:58.230Z,0.5
2024-04-24T06:16:58.880Z,0.7
2024-04-24T06:19:59.557Z,0.7
2024-04-24T06:22:00.177Z,1.1
2024-04-24T06:25:00.792Z,1.5
2024-04-24T06:27:01.374Z,1.8
2024-04-24T06:30:01.911Z,2.0
2024-04-24T06:32:02.461Z,1.9
2024-04-24T06:35:03.210Z,2.2
2024-04-24T06:37:03.967Z,2.2
2024-04-24T06:40:04.617Z,2.3
2024-04-24T06:42:05.194Z,2.5
2024-04-24T06:47:05.746Z,3.3
2024-04-24T06:50:06.425Z,3.5
2024-04-24T06:52:07.210Z,4.0
2024-04-24T06:55:07.749Z,4.3
2024-04-24T06:57:08.312Z,4.4
2024-04-24T07:00:08.948Z,4.6
2024-04-24T07:02:09.593Z,4.8
2024-04-24T07:05:10.423Z,4.9
2024-04-24T07:07:11.094Z,5.1
2024-04-24T07:10:11.639Z,5.3
2024-04-24T07:15:12.206Z,5.4
2024-04-24T07:18:12.826Z,5.4
2024-04-24T07:20:13.656Z,5.4
2024-04-24T07:23:14.367Z,5.6
2024-04-24T07:28:15.114Z,6.0
2024-04-24T07:30:15.649Z,5.7
2024-04-24T07:33:16.316Z,6.0
2024-04-24T07:35:17.328Z,5.9
2024-04-24T07:38:17.982Z,5.9
2024-04-24T07:40:18.607Z,6.2
2024-04-24T07:43:19.385Z,5.9
2024-04-24T07:46:19.977Z,6.0
2024-04-24T07:48:20.713Z,5.7
2024-04-24T07:51:22.092Z,5.8
2024-04-24T07:53:22.695Z,5.5
2024-04-24T07:56:23.504Z,5.4
2024-04-24T07:58:24.401Z,5.2
2024-04-24T08:01:24.962Z,5.2
2024-04-24T08:03:25.689Z,5.2
2024-04-24T08:08:26.768Z,5.6
2024-04-24T08:11:27.587Z,5.6
2024-04-24T08:13:28.373Z,5.8
2024-04-24T08:16:28.982Z,5.9
2024-04-24T08:18:29.704Z,5.8
2024-04-24T08:21:30.275Z,5.8
2024-04-24T08:23:30.917Z,6.0
2024-04-24T08:26:31.636Z,6.1
2024-04-24T08:28:37.789Z,6.2
2024-04-24T08:31:42.054Z,6.5
2024-04-24T08:34:42.625Z,6.6
2024-04-24T08:36:45.514Z,6.4
2024-04-24T08:39:46.370Z,6.1
2024-04-24T08:41:46.901Z,5.9
2024-04-24T08:44:47.449Z,6.0
2024-04-24T08:49:48.021Z,6.1
2024-04-24T08:51:48.596Z,6.1
2024-04-24T08:54:49.180Z,6.1
2024-04-24T08:56:49.747Z,6.1
2024-04-24T08:59:50.309Z,6.2
2024-04-24T09:01:50.867Z,6.1
2024-04-24T09:04:51.500Z,6.2
2024-04-24T09:06:52.281Z,6.0
2024-04-24T09:09:52.890Z,6.0
2024-04-24T09:11:53.463Z,6.2
2024-04-24T09:14:54.132Z,6.2
2024-04-24T09:16:54.708Z,6.2
2024-04-24T09:19:55.423Z,6.3
2024-04-24T09:21:56.295Z,6.2
2024-04-24T09:24:57.566Z,6.6
2024-04-24T09:29:58.699Z,6.6
2024-04-24T09:32:59.348Z,6.2
2024-04-24T09:35:00.127Z,6.0
2024-04-24T09:38:01.250Z,6.0
2024-04-24T09:40:01.934Z,5.9
2024-04-24T09:43:02.720Z,5.8
2024-04-24T09:45:03.350Z,5.9
2024-04-24T09:48:04.198Z,5.8
2024-04-24T09:50:05.659Z,5.9
2024-04-24T09:53:06.408Z,6.0
2024-04-24T09:55:07.063Z,6.0
2024-04-24T09:58:07.730Z,6.1
2024-04-24T10:01:08.347Z,6.2
2024-04-24T10:03:09.033Z,6.3
2024-04-24T10:06:09.942Z,6.2
2024-04-24T10:11:10.642Z,6.0
2024-04-24T10:13:11.462Z,5.9
2024-04-24T10:16:12.107Z,6.0
2024-04-24T10:18:12.729Z,5.9
2024-04-24T10:21:13.735Z,5.9
2024-04-24T10:23:14.764Z,5.9
2024-04-24T10:26:15.606Z,6.0
2024-04-24T10:28:16.522Z,6.1
2024-04-24T10:31:17.072Z,6.2
2024-04-24T10:33:17.937Z,6.2
2024-04-24T10:36:19.604Z,6.0
2024-04-24T10:38:20.196Z,6.0
2024-04-24T10:41:20.889Z,6.0
2024-04-24T10:43:21.564Z,6.1
2024-04-24T10:46:22.633Z,6.2
2024-04-24T10:51:23.243Z,6.5
2024-04-24T10:54:23.788Z,6.4
2024-04-24T10:56:24.355Z,6.5
2024-04-24T10:59:25.017Z,6.5
2024-04-24T11:01:31.968Z,6.4
2024-04-24T11:03:54.935Z,6.2
2024-04-24T11:06:55.598Z,6.1
2024-04-24T11:08:56.198Z,5.9
2024-04-24T11:11:56.978Z,5.8
2024-04-24T11:13:57.838Z,5.8
2024-04-24T11:16:58.758Z,5.7
2024-04-24T11:19:00.044Z,5.7
2024-04-24T11:22:01.274Z,5.7
2024-04-24T11:24:02.000Z,6.0
2024-04-24T11:27:02.578Z,6.3
2024-04-24T11:32:05.462Z,6.8
2024-04-24T11:35:06.768Z,6.6
2024-04-24T11:37:07.396Z,6.6
2024-04-24T11:40:07.919Z,6.4
2024-04-24T11:42:08.538Z,6.3
2024-04-24T11:45:09.185Z,6.2
2024-04-24T11:47:09.828Z,6.2
2024-04-24T11:50:10.537Z,6.2
2024-04-24T11:52:11.289Z,6.2
2024-04-24T11:55:11.932Z,6.1
2024-04-24T11:57:12.502Z,6.2
2024-04-24T12:00:13.078Z,6.2
2024-04-24T12:02:13.680Z,6.0
2024-04-24T12:05:14.339Z,6.0
2024-04-24T12:07:15.019Z,6.0
2024-04-24T12:12:15.587Z,6.0
2024-04-24T12:15:16.229Z,6.0
2024-04-24T12:18:16.764Z,6.0
2024-04-24T12:20:17.343Z,6.1
2024-04-24T12:23:17.997Z,6.0
2024-04-24T12:25:18.641Z,6.0
2024-04-24T12:28:19.193Z,6.0
2024-04-24T12:30:19.751Z,6.0
2024-04-24T12:33:20.557Z,6.2
2024-04-24T12:35:21.887Z,6.2
2024-04-24T12:38:22.597Z,6.4
2024-04-24T12:40:23.317Z,6.4
2024-04-24T12:43:23.863Z,6.1
2024-04-24T12:45:24.404Z,6.3
2024-04-24T12:48:25.003Z,6.0
2024-04-24T12:53:25.749Z,6.1
2024-04-24T12:56:26.652Z,6.0
2024-04-24T12:58:27.435Z,5.8
2024-04-24T13:01:28.025Z,5.8
2024-04-24T13:03:28.720Z,5.8
2024-04-24T13:06:29.483Z,6.0
2024-04-24T13:08:30.131Z,5.8
2024-04-24T13:11:30.991Z,5.7
2024-04-24T13:13:31.863Z,5.6
2024-04-24T13:16:32.509Z,5.6
2024-04-24T13:18:33.162Z,5.6
2024-04-24T13:21:34.307Z,5.4
2024-04-24T13:23:35.203Z,5.3
2024-04-24T13:26:36.092Z,5.2
2024-04-24T13:28:36.932Z,5.5
2024-04-24T13:34:37.508Z,5.5
2024-04-24T13:36:38.028Z,5.4
2024-04-24T13:39:38.759Z,5.3
2024-04-24T13:41:41.114Z,5.2
2024-04-24T13:43:42.014Z,5.3
2024-04-24T13:46:42.628Z,5.3
2024-04-24T13:49:43.323Z,5.2
2024-04-24T13:51:43.878Z,5.2
2024-04-24T13:54:44.456Z,5.1
2024-04-24T13:56:45.035Z,5.3
2024-04-24T13:59:45.695Z,5.4
2024-04-24T14:01:46.476Z,5.2
2024-04-24T14:04:47.056Z,5.2
2024-04-24T14:09:48.036Z,4.7
2024-04-24T14:14:48.583Z,4.7
2024-04-24T14:17:49.146Z,4.7
2024-04-24T14:19:49.839Z,4.7
2024-04-24T14:22:50.400Z,4.9
2024-04-24T14:24:50.962Z,5.2
2024-04-24T14:27:51.511Z,5.3
2024-04-24T14:29:52.097Z,5.2
2024-04-24T14:32:52.713Z,5.2
2024-04-24T14:34:53.674Z,4.9
2024-04-24T14:37:54.226Z,4.8
2024-04-24T14:39:54.791Z,4.8
2024-04-24T14:42:55.349Z,4.9
2024-04-24T14:44:55.908Z,4.8
2024-04-24T14:47:56.583Z,4.7
2024-04-24T14:49:57.565Z,4.4
2024-04-24T14:55:58.447Z,4.1
2024-04-24T14:57:59.381Z,3.9
2024-04-24T14:59:59.933Z,3.8
2024-04-24T15:03:00.725Z,3.7
2024-04-24T15:06:01.422Z,3.8
2024-04-24T15:08:01.995Z,4.1
2024-04-24T15:11:02.797Z,4.3
2024-04-24T15:13:03.510Z,4.1
2024-04-24T15:16:04.177Z,4.1
2024-04-24T15:18:04.974Z,4.2
2024-04-24T15:21:06.098Z,4.2
2024-04-24T15:23:06.666Z,4.3
2024-04-24T15:26:07.323Z,4.3
2024-04-24T15:28:07.983Z,4.4
2024-04-24T15:31:08.606Z,4.7
2024-04-24T15:36:09.434Z,4.9
2024-04-24T15:38:10.030Z,4.8
2024-04-24T15:41:10.734Z,4.9
2024-04-24T15:43:11.456Z,4.9
2024-04-24T15:46:12.100Z,4.7
2024-04-24T15:49:12.662Z,4.7
2024-04-24T15:51:13.219Z,4.5
2024-04-24T15:54:13.789Z,4.3
2024-04-24T15:56:14.375Z,4.0
2024-04-24T15:59:14.998Z,3.7
2024-04-24T16:01:15.667Z,3.5
2024-04-24T16:04:16.229Z,3.5
2024-04-24T16:06:16.881Z,3.7
2024-04-24T16:09:17.433Z,4.0
2024-04-24T16:11:18.005Z,4.0
2024-04-24T16:17:19.148Z,4.9
2024-04-24T16:19:20.291Z,4.9
2024-04-24T16:22:21.097Z,4.5
2024-04-24T16:24:21.655Z,4.4
2024-04-24T16:27:22.223Z,4.1
2024-04-24T16:29:22.862Z,3.9
2024-04-24T16:32:23.718Z,3.6
2024-04-24T16:34:24.591Z,3.5
2024-04-24T16:37:25.128Z,3.3
2024-04-24T16:39:25.704Z,3.2
2024-04-24T16:42:26.338Z,3.0
2024-04-24T16:44:26.961Z,2.9
2024-04-24T16:47:27.764Z,2.3
2024-04-24T16:49:28.791Z,1.5
2024-04-24T16:52:29.330Z,1.1
2024-04-24T16:57:30.002Z,0.8
2024-04-24T16:59:30.882Z,0.8
2024-04-24T17:02:31.735Z,0.8
2024-04-24T17:05:32.625Z,0.6
2024-04-24T17:07:33.363Z,0.1
2024-04-24T17:10:33.893Z,-0.1
2024-04-24T17:12:34.451Z,-0.3
2024-04-24T17:15:35.008Z,-0.5
2024-04-24T17:17:35.635Z,-0.5
2024-04-24T17:20:36.711Z,-0.5
2024-04-24T17:22:37.474Z,-0.2
2024-04-24T17:27:38.053Z,0.3
2024-04-24T17:30:38.615Z,0.4
2024-04-24T17:32:39.189Z,0.3
2024-04-24T17:37:39.989Z,0.2
2024-04-24T17:40:40.533Z,0.3
2024-04-24T17:43:41.072Z,0.1
2024-04-24T17:45:41.634Z,0.1
2024-04-24T17:48:42.217Z,0.0
2024-04-24T17:50:43.076Z,0.2
2024-04-24T17:53:43.647Z,0.1
2024-04-24T17:55:44.178Z,-0.1
2024-04-24T17:58:44.731Z,0.0
2024-04-24T18:00:45.356Z,-0.1
2024-04-24T18:03:46.106Z,-0.2
2024-04-24T18:05:46.778Z,-0.3
2024-04-24T18:08:47.542Z,-0.5
2024-04-24T18:10:48.187Z,-0.6
2024-04-24T18:13:49.341Z,-0.7
2024-04-24T18:18:49.909Z,-0.9
2024-04-24T18:20:50.476Z,-0.9
2024-04-24T18:23:51.056Z,-1.0
2024-04-24T18:25:51.662Z,-1.1
2024-04-24T18:28:52.612Z,-1.2
2024-04-24T18:30:53.146Z,-1.3
2024-04-24T18:33:53.712Z,-1.3
2024-04-24T18:36:54.433Z,-1.3
2024-04-24T18:38:55.099Z,-1.4
2024-04-24T18:41:56.117Z,-1.5
2024-04-24T18:43:56.919Z,-1.6
2024-04-24T18:46:57.465Z,-1.7
2024-04-24T18:48:58.167Z,-1.8
2024-04-24T18:51:59.290Z,-1.7
2024-04-24T18:53:59.992Z,-1.8
2024-04-24T18:59:00.598Z,-1.8
2024-04-24T19:02:01.504Z,-1.8
2024-04-24T19:04:02.326Z,-1.9
2024-04-24T19:07:03.107Z,-1.9
2024-04-24T19:10:03.795Z,-2.1
2024-04-24T19:12:04.617Z,-2.0
2024-04-24T19:15:05.530Z,-2.1
2024-04-24T19:17:06.125Z,-2.1
2024-04-24T19:20:06.876Z,-2.2
2024-04-24T19:22:07.574Z,-2.3
2024-04-24T19:25:08.114Z,-2.3
2024-04-24T19:27:08.705Z,-2.4
2024-04-24T19:30:09.298Z,-2.4
2024-04-24T19:32:09.966Z,-2.5
2024-04-24T19:35:10.881Z,-2.5
2024-04-24T19:40:11.591Z,-2.3
2024-04-24T19:43:12.173Z,-2.3
2024-04-24T19:45:12.743Z,-2.3
2024-04-24T19:48:13.337Z,-2.3
2024-04-24T19:50:13.991Z,-2.3
2024-04-24T19:53:14.649Z,-2.5
2024-04-24T19:55:15.384Z,-2.5
2024-04-24T19:58:15.944Z,-2.7
2024-04-24T20:00:16.471Z,-2.7
2024-04-24T20:03:17.194Z,-2.6
2024-04-24T20:05:18.097Z,-2.5
2024-04-24T20:08:18.795Z,-2.5
2024-04-24T20:10:19.382Z,-2.5
2024-04-24T20:13:19.957Z,-2.5
2024-04-24T20:15:20.589Z,-2.6
2024-04-24T20:20:21.181Z,-2.6
2024-04-24T20:23:21.901Z,-2.6
2024-04-24T20:25:22.530Z,-2.6
2024-04-24T20:28:23.125Z,-2.7
2024-04-24T20:30:23.695Z,-2.7
2024-04-24T20:33:24.476Z,-2.7
2024-04-24T20:36:25.519Z,-2.7
2024-04-24T20:38:26.115Z,-2.5
2024-04-24T20:41:26.860Z,-2.5
2024-04-24T20:43:27.624Z,-2.5
2024-04-24T20:46:28.168Z,-2.5
2024-04-24T20:48:28.818Z,-2.5
2024-04-24T20:51:29.756Z,-2.5
2024-04-24T20:53:30.336Z,-2.4
2024-04-24T20:56:31.112Z,-2.3
2024-04-24T21:01:31.744Z,-2.1
2024-04-24T21:03:32.340Z,-2.1
2024-04-24T21:06:32.957Z,-2.1
2024-04-24T21:08:33.568Z,-2.1
2024-04-24T21:11:34.301Z,-2.1
2024-04-24T21:14:35.140Z,-2.1
2024-04-24T21:16:36.228Z,-2.1
2024-04-24T21:19:36.892Z,-2.1
2024-04-24T21:21:37.470Z,-2.2
2024-04-24T21:24:38.065Z,-2.3
2024-04-24T21:26:38.722Z,-2.3
2024-04-24T21:29:39.544Z,-2.3
2024-04-24T21:31:40.227Z,-2.4
2024-04-24T21:34:40.885Z,-2.4
2024-04-24T21:36:41.448Z,-2.4
2024-04-24T21:41:42.008Z,-2.5
2024-04-24T21:44:42.712Z,-2.6
2024-04-24T21:47:43.382Z,-2.7
2024-04-24T21:49:44.416Z,-2.7
2024-04-24T21:51:45.097Z,-2.8
2024-04-24T21:54:45.653Z,-2.9
2024-04-24T21:57:46.238Z,-2.9
2024-04-24T21:59:47.002Z,-3.0
2024-04-24T22:02:47.859Z,-3.0
2024-04-24T22:04:48.674Z,-3.0
2024-04-24T22:07:49.259Z,-3.1
2024-04-24T22:09:49.810Z,-3.1
2024-04-24T22:12:50.391Z,-3.2
2024-04-24T22:14:50.967Z,-3.2
2024-04-24T22:17:52.260Z,-3.2
2024-04-24T22:22:53.663Z,-3.2
2024-04-24T22:24:54.226Z,-3.1
2024-04-24T22:27:54.927Z,-3.1
2024-04-24T22:29:55.467Z,-3.0
2024-04-24T22:32:56.126Z,-3.0
2024-04-24T22:35:56.915Z,-3.0
2024-04-24T22:37:57.553Z,-3.0
2024-04-24T22:40:58.090Z,-3.0
2024-04-24T22:45:58.646Z,-3.1
2024-04-24T22:47:59.360Z,-3.1
2024-04-24T22:51:00.442Z,-3.2
2024-04-24T22:53:00.990Z,-3.1
2024-04-24T22:56:01.660Z,-3.1
2024-04-24T22:58:02.539Z,-3.1
2024-04-24T23:03:03.236Z,-3.1
2024-04-24T23:06:03.949Z,-3.1
2024-04-24T23:09:04.492Z,-3.0
2024-04-24T23:11:05.119Z,-2.9
2024-04-24T23:16:05.943Z,-2.9
2024-04-24T23:19:06.583Z,-2.9
2024-04-24T23:21:07.135Z,-2.9
2024-04-24T23:24:07.707Z,-2.9
2024-04-24T23:26:08.286Z,-2.9
2024-04-24T23:29:08.958Z,-2.9
2024-04-24T23:31:09.541Z,-2.9
2024-04-24T23:34:10.133Z,-2.9
2024-04-24T23:36:10.672Z,-3.0
2024-04-24T23:39:11.221Z,-3.0
2024-04-24T23:44:11.825Z,-2.9
2024-04-24T23:46:12.430Z,-2.9
2024-04-24T23:49:13.007Z,-3.0
2024-04-24T23:52:13.585Z,-3.0
2024-04-24T23:54:14.145Z,-3.0
2024-04-24T23:57:14.730Z,-3.0
2024-04-24T23:59:15.323Z,-2.9
